Time;durP1;ratioP1;P1;durP2;ratioP2;P2;SDS_P1;SDS_P2;PMS_P1;PMS_P2;Temp;Humidity;BMP_temperature;BMP_pressure;BME280_temperature;BME280_humidity;BME280_pressure;Samples;Min_cycle;Max_cycle;Signal;HPM_P1;HPM_P2
2023/12/17 00:01:04;;;;;;;4.30;3.60;;;5.00;99.90;;;;;;4993888;28;20462;-74
2023/12/17 00:03:30;;;;;;;9.53;4.90;;;5.00;99.90;;;;;;4996342;28;20246;-73
2023/12/17 00:05:56;;;;;;;7.83;4.50;;;5.10;99.90;;;;;;5005688;28;20630;-74
2023/12/17 00:08:22;;;;;;;4.17;3.30;;;5.20;99.90;;;;;;5002504;28;20245;-74
2023/12/17 00:10:51;;;;;;;6.50;4.33;;;5.20;99.90;;;;;;5007187;28;20568;-74
2023/12/17 00:13:18;;;;;;;5.03;4.53;;;5.20;99.90;;;;;;4987322;28;20469;-73
2023/12/17 00:15:44;;;;;;;5.37;3.50;;;5.30;99.90;;;;;;4983197;28;20465;-73
2023/12/17 00:18:11;;;;;;;6.50;4.00;;;5.10;99.90;;;;;;4997205;28;20531;-74
2023/12/17 00:20:37;;;;;;;5.43;4.00;;;5.00;99.90;;;;;;5003300;28;20555;-74
2023/12/17 00:23:04;;;;;;;8.70;4.03;;;5.00;99.90;;;;;;4982425;28;20540;-74
2023/12/17 00:25:30;;;;;;;4.43;3.80;;;5.10;99.90;;;;;;4970882;28;20223;-73
2023/12/17 00:27:56;;;;;;;4.97;4.00;;;5.10;99.90;;;;;;4989713;28;20477;-74
2023/12/17 00:30:22;;;;;;;6.40;4.10;;;5.10;99.90;;;;;;5002896;28;20460;-74
2023/12/17 00:32:48;;;;;;;6.77;4.60;;;5.20;99.90;;;;;;5001680;28;20218;-73
2023/12/17 00:35:14;;;;;;;7.10;4.40;;;5.20;99.90;;;;;;4993303;28;20218;-73
2023/12/17 00:37:39;;;;;;;12.00;4.27;;;5.20;99.90;;;;;;4997721;28;20523;-75
2023/12/17 00:40:06;;;;;;;7.27;4.30;;;5.20;99.90;;;;;;4998057;28;20697;-74
2023/12/17 00:42:32;;;;;;;7.23;4.23;;;5.10;99.90;;;;;;4989521;28;20273;-73
2023/12/17 00:44:58;;;;;;;7.53;4.73;;;5.10;99.90;;;;;;4998483;28;20476;-74
2023/12/17 00:47:24;;;;;;;6.40;4.63;;;5.10;99.90;;;;;;4993160;28;20466;-74
2023/12/17 00:49:50;;;;;;;6.40;4.50;;;5.10;99.90;;;;;;4988948;28;20606;-74
2023/12/17 00:52:16;;;;;;;9.43;4.47;;;5.20;99.90;;;;;;4992020;28;20214;-73
2023/12/17 00:54:41;;;;;;;6.37;4.60;;;5.20;99.90;;;;;;4994996;28;21025;-74
2023/12/17 00:57:07;;;;;;;8.20;4.40;;;5.20;99.90;;;;;;4991926;28;20309;-74
2023/12/17 00:59:32;;;;;;;5.30;3.90;;;5.20;99.90;;;;;;4998416;28;20697;-74
2023/12/17 01:01:58;;;;;;;7.43;4.30;;;5.20;99.90;;;;;;4979334;28;20214;-74
2023/12/17 01:04:24;;;;;;;9.77;4.00;;;5.10;99.90;;;;;;4996603;28;20245;-73
2023/12/17 01:06:49;;;;;;;6.30;5.07;;;4.90;99.90;;;;;;4991901;28;20305;-73
2023/12/17 01:09:15;;;;;;;7.50;3.90;;;4.90;99.90;;;;;;4988458;28;20234;-72
2023/12/17 01:11:42;;;;;;;6.67;4.37;;;5.00;99.90;;;;;;4990646;28;20297;-73
2023/12/17 01:14:08;;;;;;;5.90;4.20;;;5.00;99.90;;;;;;4984664;28;20221;-74
2023/12/17 01:16:33;;;;;;;11.60;4.10;;;5.00;99.90;;;;;;4977534;28;20468;-73
2023/12/17 01:18:59;;;;;;;4.60;4.20;;;5.00;99.90;;;;;;4981427;28;20484;-74
2023/12/17 01:21:25;;;;;;;5.20;3.90;;;5.10;99.90;;;;;;4988672;28;20610;-74
2023/12/17 01:23:50;;;;;;;6.97;4.10;;;5.10;99.90;;;;;;4982155;28;20209;-74
2023/12/17 01:26:22;;;;;;;5.30;3.60;;;5.10;99.90;;;;;;4996262;28;20214;-73
2023/12/17 01:28:49;;;;;;;4.30;3.40;;;5.20;99.90;;;;;;4987224;28;20305;-74
2023/12/17 01:31:15;;;;;;;6.90;4.07;;;5.30;99.90;;;;;;5006857;28;20535;-73
2023/12/17 01:33:41;;;;;;;10.47;3.77;;;5.30;99.90;;;;;;5017716;28;20460;-73
2023/12/17 01:36:07;;;;;;;7.80;3.73;;;5.30;99.90;;;;;;4997183;28;20569;-74
2023/12/17 01:38:33;;;;;;;7.77;3.73;;;5.30;99.90;;;;;;4986081;28;20241;-74
2023/12/17 01:40:59;;;;;;;17.33;5.27;;;5.40;99.90;;;;;;4988845;28;20478;-75
2023/12/17 01:43:24;;;;;;;8.70;3.23;;;5.30;99.90;;;;;;4996875;28;20222;-74
2023/12/17 01:45:52;;;;;;;5.90;3.53;;;5.30;99.90;;;;;;4989765;28;20252;-75
2023/12/17 01:48:19;;;;;;;8.30;3.80;;;5.40;99.90;;;;;;4997639;28;20230;-74
2023/12/17 01:50:45;;;;;;;14.27;4.63;;;5.40;99.90;;;;;;4970344;28;20466;-74
2023/12/17 01:53:12;;;;;;;8.23;3.70;;;5.40;99.90;;;;;;4997861;28;20452;-74
2023/12/17 01:55:38;;;;;;;4.77;4.00;;;5.40;99.90;;;;;;5002516;28;20495;-73
2023/12/17 01:58:06;;;;;;;5.70;3.60;;;5.40;99.90;;;;;;4997647;28;20472;-73
2023/12/17 02:00:32;;;;;;;6.13;4.07;;;5.40;99.90;;;;;;4997416;28;20458;-74
2023/12/17 02:02:58;;;;;;;6.80;4.57;;;5.40;99.90;;;;;;4985514;28;20541;-74
2023/12/17 02:05:26;;;;;;;7.40;4.53;;;5.40;99.90;;;;;;4990800;28;20218;-73
2023/12/17 02:07:52;;;;;;;7.63;4.33;;;5.40;99.90;;;;;;4992872;28;20696;-74
2023/12/17 02:10:18;;;;;;;8.23;4.00;;;5.50;99.90;;;;;;4983985;28;20471;-73
2023/12/17 02:12:43;;;;;;;6.50;3.70;;;5.50;99.90;;;;;;4986774;28;20683;-73
2023/12/17 02:15:09;;;;;;;6.97;4.20;;;5.50;99.90;;;;;;4981588;28;20255;-74
2023/12/17 02:17:35;;;;;;;6.83;4.97;;;5.50;99.90;;;;;;4999940;28;20223;-73
2023/12/17 02:20:00;;;;;;;5.17;3.97;;;5.50;99.90;;;;;;4983147;28;20615;-74
2023/12/17 02:22:29;;;;;;;7.93;4.97;;;5.50;99.90;;;;;;4996066;28;20269;-74
2023/12/17 02:24:55;;;;;;;6.13;4.73;;;5.50;99.90;;;;;;5011589;28;20452;-74
2023/12/17 02:27:23;;;;;;;17.27;5.87;;;5.60;99.90;;;;;;5005620;28;20464;-73
2023/12/17 02:29:51;;;;;;;9.53;5.10;;;5.50;99.90;;;;;;4982861;28;20218;-74
2023/12/17 02:32:21;;;;;;;8.80;4.83;;;5.50;99.90;;;;;;5022274;28;20461;-74
2023/12/17 02:34:47;;;;;;;6.93;5.17;;;5.60;99.90;;;;;;5026149;28;20452;-73
2023/12/17 02:37:13;;;;;;;8.73;5.70;;;5.60;99.90;;;;;;5003196;28;20461;-74
2023/12/17 02:39:39;;;;;;;6.87;4.73;;;5.60;99.90;;;;;;5008679;28;20586;-73
2023/12/17 02:42:05;;;;;;;8.60;5.20;;;5.60;99.90;;;;;;4999032;28;21021;-74
2023/12/17 02:44:30;;;;;;;9.17;5.50;;;5.60;99.90;;;;;;5004363;28;20217;-74
2023/12/17 02:46:57;;;;;;;10.43;5.23;;;5.60;99.90;;;;;;5019946;28;20225;-74
2023/12/17 02:49:24;;;;;;;8.00;5.10;;;5.60;99.90;;;;;;5017309;28;20330;-74
2023/12/17 02:51:50;;;;;;;8.83;4.87;;;5.60;99.90;;;;;;5007303;28;20597;-74
2023/12/17 02:54:17;;;;;;;7.67;4.27;;;5.70;99.90;;;;;;5004884;28;20460;-74
2023/12/17 02:56:43;;;;;;;7.13;4.60;;;5.60;99.90;;;;;;4985627;28;20469;-74
2023/12/17 02:59:10;;;;;;;6.90;5.27;;;5.60;99.90;;;;;;4990802;28;20454;-74
2023/12/17 03:01:36;;;;;;;6.50;4.90;;;5.60;99.90;;;;;;4996673;28;20218;-74
2023/12/17 03:04:05;;;;;;;8.00;4.67;;;5.60;99.90;;;;;;5001763;28;20465;-74
2023/12/17 03:06:31;;;;;;;13.60;4.70;;;5.70;99.90;;;;;;4979770;28;20222;-74
2023/12/17 03:08:57;;;;;;;6.23;4.60;;;5.70;99.90;;;;;;4991340;28;20519;-74
2023/12/17 03:11:22;;;;;;;12.77;4.73;;;5.70;99.90;;;;;;5004304;28;21002;-74
2023/12/17 03:13:48;;;;;;;6.33;5.20;;;5.70;99.90;;;;;;5000640;28;20222;-74
2023/12/17 03:16:14;;;;;;;5.57;4.23;;;5.70;99.90;;;;;;4998456;28;20221;-74
2023/12/17 03:18:39;;;;;;;6.37;3.90;;;5.70;99.90;;;;;;4997844;28;20223;-73
2023/12/17 03:21:07;;;;;;;9.10;5.00;;;5.70;99.90;;;;;;4993068;28;20238;-74
2023/12/17 03:23:33;;;;;;;8.07;4.30;;;5.70;99.90;;;;;;4996936;28;20229;-75
2023/12/17 03:25:59;;;;;;;7.23;4.20;;;5.70;99.90;;;;;;5018130;28;20460;-75
2023/12/17 03:28:24;;;;;;;5.17;2.93;;;5.70;99.90;;;;;;5026074;28;20514;-74
2023/12/17 03:30:50;;;;;;;9.97;4.10;;;5.70;99.90;;;;;;5013569;28;20210;-74
2023/12/17 03:33:16;;;;;;;5.30;3.87;;;5.70;99.90;;;;;;5003128;28;20229;-74
2023/12/17 03:35:42;;;;;;;6.40;3.47;;;5.70;99.90;;;;;;4999401;28;20305;-74
2023/12/17 03:38:07;;;;;;;4.00;3.23;;;5.70;99.90;;;;;;4998361;28;20309;-74
2023/12/17 03:40:33;;;;;;;11.20;3.87;;;5.80;99.90;;;;;;4994185;28;20242;-74
2023/12/17 03:43:00;;;;;;;7.20;4.50;;;5.70;99.90;;;;;;4998420;28;20627;-74
2023/12/17 03:45:25;;;;;;;9.10;4.07;;;5.70;99.90;;;;;;5001823;28;20297;-74
2023/12/17 03:47:51;;;;;;;9.97;4.20;;;5.80;99.90;;;;;;4998223;28;20576;-74
2023/12/17 03:50:18;;;;;;;12.43;4.60;;;5.80;99.90;;;;;;4992302;28;20693;-75
2023/12/17 03:52:46;;;;;;;16.80;5.40;;;5.80;99.90;;;;;;4977537;28;20214;-74
2023/12/17 03:55:12;;;;;;;6.40;4.57;;;5.80;99.90;;;;;;4994802;28;20445;-74
2023/12/17 03:57:37;;;;;;;10.10;5.00;;;5.80;99.90;;;;;;4988899;28;20461;-73
2023/12/17 04:00:04;;;;;;;7.27;4.40;;;5.80;99.90;;;;;;4997269;28;20532;-74
2023/12/17 04:02:31;;;;;;;9.63;4.73;;;5.80;99.90;;;;;;4990802;28;20242;-74
2023/12/17 04:04:56;;;;;;;7.43;4.90;;;5.80;99.90;;;;;;4983751;28;20507;-74
2023/12/17 04:07:22;;;;;;;9.10;4.70;;;5.80;99.90;;;;;;4993822;28;20218;-74
2023/12/17 04:09:48;;;;;;;12.57;4.80;;;5.90;99.90;;;;;;5001190;28;20210;-75
2023/12/17 04:12:14;;;;;;;6.73;4.60;;;5.90;99.90;;;;;;4993816;28;20214;-74
2023/12/17 04:14:40;;;;;;;8.90;4.77;;;5.90;99.90;;;;;;4996473;28;20214;-75
2023/12/17 04:17:07;;;;;;;6.97;3.73;;;5.90;99.90;;;;;;4983281;28;20218;-75
2023/12/17 04:19:33;;;;;;;11.03;5.10;;;5.90;99.90;;;;;;4995445;28;20480;-75
2023/12/17 04:21:58;;;;;;;8.27;5.07;;;5.90;99.90;;;;;;4966666;28;20446;-74
2023/12/17 04:24:24;;;;;;;9.30;4.73;;;5.90;99.90;;;;;;4991681;28;20249;-73
2023/12/17 04:26:50;;;;;;;11.90;4.00;;;5.90;99.90;;;;;;4995146;28;20576;-75
2023/12/17 04:29:16;;;;;;;7.10;4.57;;;5.90;99.90;;;;;;4981489;28;20232;-75
2023/12/17 04:31:41;;;;;;;7.40;5.40;;;5.90;99.90;;;;;;4993833;28;20250;-74
2023/12/17 04:34:08;;;;;;;14.70;5.13;;;5.90;99.90;;;;;;4987575;28;20226;-74
2023/12/17 04:36:34;;;;;;;14.97;5.30;;;5.80;99.90;;;;;;4986090;28;20257;-74
2023/12/17 04:39:00;;;;;;;12.57;5.40;;;5.90;99.90;;;;;;4987365;28;20535;-74
2023/12/17 04:41:26;;;;;;;7.10;4.80;;;5.90;99.90;;;;;;5002104;28;20628;-75
2023/12/17 04:43:52;;;;;;;7.97;5.33;;;5.90;99.90;;;;;;4990303;28;20246;-73
2023/12/17 04:46:18;;;;;;;12.07;5.23;;;5.90;99.90;;;;;;4996409;28;20772;-75
2023/12/17 04:48:44;;;;;;;9.50;4.70;;;5.90;99.90;;;;;;4995032;28;20242;-75
2023/12/17 04:51:10;;;;;;;12.43;5.40;;;5.90;99.90;;;;;;4992792;28;20472;-75
2023/12/17 04:53:35;;;;;;;10.60;4.87;;;5.90;99.90;;;;;;4983953;28;20711;-74
2023/12/17 04:56:02;;;;;;;18.37;6.37;;;6.00;99.90;;;;;;4991855;28;20233;-74
2023/12/17 04:58:28;;;;;;;9.37;4.97;;;5.90;99.90;;;;;;4999634;28;20249;-73
2023/12/17 05:00:58;;;;;;;10.57;5.00;;;6.00;99.90;;;;;;5001072;28;20461;-74
2023/12/17 05:03:25;;;;;;;11.17;4.83;;;6.00;99.90;;;;;;4998920;28;20550;-74
2023/12/17 05:05:51;;;;;;;11.93;5.33;;;6.00;99.90;;;;;;4995670;28;20488;-74
2023/12/17 05:08:17;;;;;;;8.90;5.00;;;6.00;99.90;;;;;;4991597;28;20497;-75
2023/12/17 05:10:43;;;;;;;6.07;4.50;;;6.00;99.90;;;;;;4985034;28;20225;-72
2023/12/17 05:13:09;;;;;;;10.30;4.20;;;6.00;99.90;;;;;;4983268;28;20473;-75
2023/12/17 05:15:34;;;;;;;11.00;4.43;;;6.00;99.90;;;;;;4985990;28;20222;-74
2023/12/17 05:18:00;;;;;;;6.67;3.90;;;6.00;99.90;;;;;;4999503;28;20269;-75
2023/12/17 05:20:26;;;;;;;5.60;4.20;;;6.00;99.90;;;;;;4987803;28;20219;-72
2023/12/17 05:22:52;;;;;;;8.40;4.40;;;6.00;99.90;;;;;;4982566;28;20457;-74
2023/12/17 05:25:18;;;;;;;6.77;4.07;;;6.00;99.90;;;;;;4989100;28;20621;-75
2023/12/17 05:27:43;;;;;;;4.63;3.50;;;6.00;99.90;;;;;;4986419;28;20230;-74
2023/12/17 05:30:10;;;;;;;9.90;4.53;;;6.00;99.90;;;;;;4977367;28;20240;-75
2023/12/17 05:32:36;;;;;;;9.47;4.47;;;6.00;99.90;;;;;;5003461;28;20217;-75
2023/12/17 05:35:02;;;;;;;10.23;4.10;;;6.00;99.90;;;;;;4997832;28;20465;-74
2023/12/17 05:37:27;;;;;;;6.30;4.37;;;6.00;99.90;;;;;;4986615;28;20242;-73
2023/12/17 05:39:53;;;;;;;5.30;4.20;;;6.00;99.90;;;;;;4986077;28;20615;-74
2023/12/17 05:42:19;;;;;;;8.33;4.97;;;6.00;99.90;;;;;;4998572;28;20216;-74
2023/12/17 05:44:44;;;;;;;9.03;5.27;;;5.90;99.90;;;;;;4989558;28;20214;-75
2023/12/17 05:47:10;;;;;;;8.20;4.37;;;5.90;99.90;;;;;;4983112;28;20229;-75
2023/12/17 05:49:39;;;;;;;8.80;4.60;;;5.80;99.90;;;;;;4992960;28;20264;-75
2023/12/17 05:52:06;;;;;;;7.27;4.37;;;5.90;99.90;;;;;;4985814;28;20225;-74
2023/12/17 05:54:33;;;;;;;7.57;4.17;;;6.00;99.90;;;;;;4989784;28;20990;-75
2023/12/17 05:57:01;;;;;;;7.40;4.07;;;5.90;99.90;;;;;;4999874;28;20665;-74
2023/12/17 05:59:27;;;;;;;8.93;4.07;;;5.80;99.90;;;;;;4995825;28;20454;-74
2023/12/17 06:01:53;;;;;;;7.37;4.47;;;5.80;99.90;;;;;;4999355;28;20467;-74
2023/12/17 06:04:18;;;;;;;13.40;5.67;;;5.80;99.90;;;;;;5001295;28;20221;-74
2023/12/17 06:06:46;;;;;;;7.10;4.50;;;5.90;99.90;;;;;;4998788;28;20248;-75
2023/12/17 06:09:13;;;;;;;7.57;4.37;;;5.90;99.90;;;;;;4999005;28;20234;-74
2023/12/17 06:11:38;;;;;;;9.27;4.77;;;6.00;99.90;;;;;;5010880;28;20456;-74
2023/12/17 06:14:04;;;;;;;8.40;4.70;;;6.00;99.90;;;;;;5003811;28;20955;-74
2023/12/17 06:16:30;;;;;;;7.23;4.07;;;6.10;99.90;;;;;;5003599;28;20283;-74
2023/12/17 06:18:56;;;;;;;8.07;4.03;;;6.10;99.90;;;;;;5009511;28;20210;-74
2023/12/17 06:21:26;;;;;;;9.87;5.23;;;6.10;99.90;;;;;;4986706;28;20222;-74
2023/12/17 06:23:57;;;;;;;6.33;4.20;;;6.10;99.90;;;;;;4991435;28;20441;-74
2023/12/17 06:26:26;;;;;;;8.17;4.40;;;6.10;99.90;;;;;;4984790;28;20473;-74
2023/12/17 06:28:52;;;;;;;7.93;4.20;;;6.10;99.90;;;;;;5005024;28;20476;-74
2023/12/17 06:31:18;;;;;;;7.07;4.67;;;6.10;99.90;;;;;;5003223;28;20523;-75
2023/12/17 06:33:44;;;;;;;6.10;4.67;;;6.10;99.90;;;;;;4994116;28;20994;-75
2023/12/17 06:36:09;;;;;;;6.03;3.63;;;6.10;99.90;;;;;;5001450;28;20223;-75
2023/12/17 06:38:35;;;;;;;6.77;5.13;;;6.20;99.90;;;;;;4996014;28;20712;-75
2023/12/17 06:41:02;;;;;;;10.20;5.70;;;6.20;99.90;;;;;;4998824;28;20218;-75
2023/12/17 06:43:27;;;;;;;5.50;4.90;;;6.20;99.90;;;;;;5001124;28;20449;-74
2023/12/17 06:45:54;;;;;;;7.23;4.93;;;6.10;99.90;;;;;;5003991;28;20493;-74
2023/12/17 06:48:20;;;;;;;10.87;4.90;;;6.10;99.90;;;;;;5009506;28;20581;-75
2023/12/17 06:50:45;;;;;;;6.63;4.70;;;6.10;99.90;;;;;;4984103;28;20489;-74
2023/12/17 06:53:16;;;;;;;4.53;3.30;;;6.10;99.90;;;;;;4987343;28;20283;-75
2023/12/17 06:55:43;;;;;;;6.63;4.10;;;6.10;99.90;;;;;;4991064;28;20624;-74
2023/12/17 06:58:09;;;;;;;4.23;3.53;;;6.10;99.90;;;;;;5002446;28;20451;-74
2023/12/17 07:00:34;;;;;;;5.43;3.37;;;6.00;99.90;;;;;;5004347;28;20453;-74
2023/12/17 07:03:01;;;;;;;7.20;3.80;;;6.00;99.90;;;;;;4999020;28;20210;-74
2023/12/17 07:05:27;;;;;;;5.40;3.00;;;6.00;99.90;;;;;;4978717;28;20241;-74
2023/12/17 07:07:53;;;;;;;3.97;3.20;;;6.00;99.90;;;;;;4999090;28;20504;-74
2023/12/17 07:10:20;;;;;;;5.00;3.10;;;6.00;99.90;;;;;;4997325;28;20218;-74
2023/12/17 07:12:49;;;;;;;4.10;2.80;;;5.90;99.90;;;;;;4996578;28;20449;-73
2023/12/17 07:15:15;;;;;;;2.40;2.03;;;5.80;99.90;;;;;;4996507;28;20468;-74
2023/12/17 07:17:40;;;;;;;2.83;1.80;;;5.80;99.90;;;;;;4981124;28;20999;-75
2023/12/17 07:20:10;;;;;;;4.60;2.27;;;5.70;99.90;;;;;;5000484;28;20648;-75
2023/12/17 07:22:36;;;;;;;2.07;1.80;;;5.70;99.90;;;;;;4997659;28;20238;-75
2023/12/17 07:25:02;;;;;;;3.40;1.83;;;5.70;99.90;;;;;;5001163;28;20452;-74
2023/12/17 07:27:28;;;;;;;4.87;2.80;;;5.70;99.90;;;;;;5001516;28;20453;-75
2023/12/17 07:29:54;;;;;;;4.50;2.90;;;5.70;99.90;;;;;;5001021;28;20453;-75
2023/12/17 07:32:20;;;;;;;3.20;2.47;;;5.70;99.90;;;;;;4985777;28;20210;-75
2023/12/17 07:34:45;;;;;;;3.87;3.23;;;5.80;99.90;;;;;;4988459;28;20241;-74
2023/12/17 07:37:11;;;;;;;4.80;3.47;;;5.70;99.90;;;;;;4994796;28;20300;-75
2023/12/17 07:39:37;;;;;;;6.23;3.30;;;5.80;99.90;;;;;;4986931;28;20217;-75
2023/12/17 07:42:03;;;;;;;3.80;2.57;;;5.80;99.90;;;;;;4998663;28;20216;-75
2023/12/17 07:44:30;;;;;;;5.90;3.50;;;5.90;99.90;;;;;;4999702;28;20213;-74
2023/12/17 07:46:57;;;;;;;6.50;3.83;;;5.80;99.90;;;;;;4994396;28;20460;-75
2023/12/17 07:49:23;;;;;;;6.60;3.47;;;5.70;99.90;;;;;;4998132;28;20470;-75
2023/12/17 07:51:49;;;;;;;6.77;3.60;;;5.70;99.90;;;;;;4995505;28;20471;-75
2023/12/17 07:54:15;;;;;;;4.90;2.67;;;5.60;99.90;;;;;;4988153;28;20462;-75
2023/12/17 07:56:41;;;;;;;7.63;3.57;;;5.50;99.90;;;;;;4994844;28;20230;-74
2023/12/17 07:59:07;;;;;;;6.10;2.97;;;5.50;99.90;;;;;;4991859;28;20230;-75
2023/12/17 08:01:33;;;;;;;5.70;3.13;;;5.60;99.90;;;;;;4988262;28;20228;-75
2023/12/17 08:03:59;;;;;;;5.40;3.07;;;5.70;99.90;;;;;;4985290;28;20225;-75
2023/12/17 08:06:25;;;;;;;5.53;3.07;;;5.70;99.90;;;;;;5003859;28;20461;-74
2023/12/17 08:08:54;;;;;;;4.77;2.67;;;5.80;99.90;;;;;;4999326;28;20244;-75
2023/12/17 08:11:20;;;;;;;5.90;3.43;;;5.80;99.90;;;;;;4986933;28;20246;-75
2023/12/17 08:13:46;;;;;;;3.13;2.67;;;5.80;99.90;;;;;;4985888;28;20472;-75
2023/12/17 08:16:12;;;;;;;4.07;2.60;;;5.70;99.90;;;;;;4994835;28;20593;-75
2023/12/17 08:18:38;;;;;;;3.33;2.47;;;5.80;99.90;;;;;;4998315;28;20483;-75
2023/12/17 08:21:04;;;;;;;5.20;3.50;;;5.70;99.90;;;;;;4990310;28;20227;-75
2023/12/17 08:23:30;;;;;;;7.47;3.63;;;5.60;99.90;;;;;;4998581;28;20252;-75
2023/12/17 08:25:56;;;;;;;4.10;2.90;;;5.60;99.90;;;;;;4987101;28;20453;-75
2023/12/17 08:28:22;;;;;;;4.97;2.83;;;5.60;99.90;;;;;;4994710;28;21063;-74
2023/12/17 08:30:49;;;;;;;7.80;2.73;;;5.60;99.90;;;;;;5004387;28;20218;-74
2023/12/17 08:33:16;;;;;;;3.47;2.63;;;5.60;99.90;;;;;;5000934;28;20468;-75
2023/12/17 08:35:44;;;;;;;2.70;2.20;;;5.70;99.90;;;;;;4994730;28;20457;-74
2023/12/17 08:38:10;;;;;;;5.40;3.37;;;5.70;99.90;;;;;;5004396;28;20461;-74
2023/12/17 08:40:37;;;;;;;4.40;2.77;;;5.70;99.90;;;;;;5000340;28;20514;-74
2023/12/17 08:43:07;;;;;;;6.13;2.60;;;5.80;99.90;;;;;;4987592;28;20218;-75
2023/12/17 08:45:34;;;;;;;4.60;3.20;;;5.70;99.90;;;;;;4997873;28;20462;-75
2023/12/17 08:48:01;;;;;;;5.53;3.13;;;5.70;99.90;;;;;;4995188;28;20476;-74
2023/12/17 08:50:26;;;;;;;6.03;3.20;;;5.70;99.90;;;;;;5002348;28;20484;-75
2023/12/17 08:52:55;;;;;;;4.97;3.30;;;5.70;99.90;;;;;;4994969;28;20472;-75
2023/12/17 08:55:21;;;;;;;5.97;3.33;;;5.70;99.90;;;;;;4983427;28;20467;-74
2023/12/17 08:57:47;;;;;;;5.00;3.90;;;5.80;99.90;;;;;;4982312;28;20463;-74
2023/12/17 09:00:13;;;;;;;6.77;4.13;;;5.90;99.90;;;;;;4970697;28;20230;-74
2023/12/17 09:02:39;;;;;;;5.27;3.57;;;5.80;99.90;;;;;;4995650;28;20214;-74
2023/12/17 09:05:06;;;;;;;8.73;2.90;;;5.80;99.90;;;;;;4983392;28;20603;-74
2023/12/17 09:07:32;;;;;;;2.97;2.03;;;5.80;99.90;;;;;;5006583;28;20254;-74
2023/12/17 09:09:57;;;;;;;4.90;3.20;;;5.80;99.90;;;;;;4997471;28;20464;-74
2023/12/17 09:12:23;;;;;;;4.90;3.33;;;5.80;99.90;;;;;;4972666;28;20301;-74
2023/12/17 09:14:49;;;;;;;4.23;2.70;;;5.80;99.90;;;;;;4996285;28;20210;-74
2023/12/17 09:17:15;;;;;;;5.00;2.93;;;5.70;99.90;;;;;;4993683;28;20276;-73
2023/12/17 09:19:41;;;;;;;4.93;3.33;;;5.70;99.90;;;;;;4983723;28;20491;-74
2023/12/17 09:22:07;;;;;;;4.33;3.00;;;5.70;99.90;;;;;;4988967;28;20487;-74
2023/12/17 09:24:33;;;;;;;6.80;3.90;;;5.70;99.90;;;;;;5006808;28;20225;-74
2023/12/17 09:26:59;;;;;;;8.23;3.80;;;5.80;99.90;;;;;;5002841;28;20239;-74
2023/12/17 09:29:25;;;;;;;3.43;2.47;;;5.80;99.90;;;;;;5004444;28;20718;-74
2023/12/17 09:31:51;;;;;;;5.03;3.10;;;5.80;99.90;;;;;;5007669;28;20510;-74
2023/12/17 09:34:16;;;;;;;4.10;2.77;;;5.90;99.90;;;;;;4994695;28;20300;-74
2023/12/17 09:36:43;;;;;;;4.67;2.47;;;5.90;99.90;;;;;;4984973;28;20712;-74
2023/12/17 09:39:08;;;;;;;5.27;3.00;;;5.90;99.90;;;;;;4990415;28;20253;-74
2023/12/17 09:41:34;;;;;;;4.80;2.53;;;5.80;99.90;;;;;;5003663;28;20509;-74
2023/12/17 09:44:00;;;;;;;5.60;2.70;;;5.70;99.90;;;;;;4984903;28;20461;-74
2023/12/17 09:46:27;;;;;;;2.73;2.13;;;5.70;99.90;;;;;;4987961;28;20232;-73
2023/12/17 09:48:53;;;;;;;2.57;2.13;;;5.80;99.90;;;;;;4989106;28;20348;-73
2023/12/17 09:51:22;;;;;;;3.50;2.47;;;5.80;99.90;;;;;;4979205;28;20947;-73
2023/12/17 09:53:48;;;;;;;5.00;2.20;;;5.80;99.90;;;;;;4994114;28;20222;-72
2023/12/17 09:56:14;;;;;;;11.93;2.20;;;5.70;99.90;;;;;;4993111;28;20465;-74
2023/12/17 09:58:40;;;;;;;4.03;2.20;;;5.80;99.90;;;;;;5003807;28;20225;-73
2023/12/17 10:01:06;;;;;;;3.97;2.70;;;5.80;99.90;;;;;;4999626;28;20241;-74
2023/12/17 10:03:33;;;;;;;2.00;1.80;;;5.90;99.90;;;;;;5004245;28;20499;-74
2023/12/17 10:05:59;;;;;;;3.80;2.70;;;5.90;99.90;;;;;;4976058;28;20248;-73
2023/12/17 10:08:25;;;;;;;4.20;1.97;;;5.70;99.90;;;;;;5000766;28;20546;-73
2023/12/17 10:10:51;;;;;;;2.60;1.97;;;5.60;99.90;;;;;;5007276;28;20591;-73
2023/12/17 10:13:18;;;;;;;2.17;1.93;;;5.70;99.90;;;;;;4977208;28;20217;-74
2023/12/17 10:15:50;;;;;;;4.30;2.43;;;5.80;99.90;;;;;;5001933;28;20218;-74
2023/12/17 10:18:17;;;;;;;3.13;1.93;;;5.80;99.90;;;;;;4993584;28;20456;-74
2023/12/17 10:20:47;;;;;;;3.73;2.20;;;5.90;99.90;;;;;;4984542;28;20543;-74
2023/12/17 10:23:13;;;;;;;3.60;2.10;;;5.90;99.90;;;;;;4975345;28;20987;-74
2023/12/17 10:25:40;;;;;;;4.20;2.60;;;6.00;99.90;;;;;;4993652;28;21039;-73
2023/12/17 10:28:08;;;;;;;2.63;2.07;;;5.90;99.90;;;;;;4981634;28;20470;-74
2023/12/17 10:30:34;;;;;;;3.33;1.73;;;5.90;99.90;;;;;;5000589;28;20448;-74
2023/12/17 10:33:01;;;;;;;3.63;2.47;;;5.90;99.90;;;;;;4987014;28;20467;-74
2023/12/17 10:35:29;;;;;;;3.97;2.00;;;6.00;99.90;;;;;;4989848;28;20220;-74
2023/12/17 10:38:00;;;;;;;3.07;2.37;;;5.90;99.90;;;;;;4997053;28;20503;-74
2023/12/17 10:40:30;;;;;;;3.97;2.43;;;5.90;99.90;;;;;;4997277;28;20450;-74
2023/12/17 10:42:57;;;;;;;3.77;2.60;;;5.90;99.90;;;;;;4993713;28;20469;-74
2023/12/17 10:45:23;;;;;;;3.47;2.50;;;5.90;99.90;;;;;;4998905;28;20448;-74
2023/12/17 10:47:56;;;;;;;3.37;2.23;;;5.90;99.90;;;;;;4987109;28;20985;-74
2023/12/17 10:50:22;;;;;;;3.63;2.80;;;5.90;99.90;;;;;;4988318;28;20797;-74
2023/12/17 10:52:49;;;;;;;4.40;3.23;;;5.90;99.90;;;;;;4988097;28;20507;-73
2023/12/17 10:55:16;;;;;;;4.23;2.67;;;6.00;99.90;;;;;;4994002;28;20448;-75
2023/12/17 10:57:58;;;;;;;5.27;3.20;;;6.00;99.90;;;;;;4995844;28;20457;-73
2023/12/17 11:00:27;;;;;;;7.43;3.47;;;6.00;99.90;;;;;;5021915;28;20977;-74
2023/12/17 11:02:57;;;;;;;6.67;2.87;;;5.90;99.90;;;;;;5007625;28;20457;-74
2023/12/17 11:05:23;;;;;;;6.37;3.00;;;6.00;99.90;;;;;;5008186;28;20561;-74
2023/12/17 11:07:49;;;;;;;5.20;2.57;;;6.00;99.90;;;;;;4993379;28;20464;-74
2023/12/17 11:10:17;;;;;;;5.70;3.37;;;6.10;99.90;;;;;;5013990;28;20221;-74
2023/12/17 11:12:45;;;;;;;6.03;3.53;;;6.10;99.90;;;;;;5008306;28;20830;-73
2023/12/17 11:15:19;;;;;;;6.20;3.47;;;6.10;99.90;;;;;;5018592;28;20481;-74
2023/12/17 11:17:45;;;;;;;3.83;3.43;;;6.10;99.90;;;;;;4994055;28;20486;-74
2023/12/17 11:20:11;;;;;;;5.53;3.13;;;6.10;99.90;;;;;;4992479;28;20473;-75
2023/12/17 11:22:37;;;;;;;8.10;3.90;;;6.10;99.90;;;;;;4992949;28;20987;-74
2023/12/17 11:25:09;;;;;;;6.37;3.60;;;6.10;99.90;;;;;;4999931;28;20216;-74
2023/12/17 11:27:35;;;;;;;7.57;4.40;;;6.10;99.90;;;;;;5004082;28;20460;-74
2023/12/17 11:30:01;;;;;;;14.40;4.63;;;6.10;99.90;;;;;;5001273;28;20457;-75
2023/12/17 11:32:27;;;;;;;6.53;3.90;;;6.10;99.90;;;;;;5000559;28;20222;-75
2023/12/17 11:34:55;;;;;;;6.03;4.00;;;6.20;99.90;;;;;;4996858;28;20218;-74
2023/12/17 11:37:22;;;;;;;8.87;4.93;;;6.20;99.90;;;;;;4988033;28;20524;-75
2023/12/17 11:39:49;;;;;;;6.47;4.07;;;6.20;99.90;;;;;;4978031;28;20472;-72
2023/12/17 11:42:17;;;;;;;6.67;3.63;;;6.20;99.90;;;;;;4994072;28;20507;-74
2023/12/17 11:44:51;;;;;;;6.00;3.90;;;6.20;99.90;;;;;;4977968;28;20970;-74
2023/12/17 11:47:26;;;;;;;6.73;4.10;;;6.20;99.90;;;;;;4978923;28;20456;-75
2023/12/17 11:50:00;;;;;;;6.97;4.60;;;6.20;99.90;;;;;;5002117;28;21016;-74
2023/12/17 11:52:26;;;;;;;5.63;4.10;;;6.30;99.90;;;;;;5009611;28;20460;-74
2023/12/17 11:54:59;;;;;;;7.40;4.90;;;6.30;99.90;;;;;;5011759;28;20456;-73
2023/12/17 11:57:25;;;;;;;9.17;5.47;;;6.20;99.90;;;;;;5001893;28;20497;-74
2023/12/17 11:59:51;;;;;;;7.87;5.47;;;6.20;99.90;;;;;;4997486;28;20481;-74
2023/12/17 12:02:18;;;;;;;9.47;5.10;;;6.20;99.90;;;;;;4996285;28;20476;-74
2023/12/17 12:04:45;;;;;;;9.70;6.50;;;6.20;99.90;;;;;;4987100;28;20510;-73
2023/12/17 12:07:17;;;;;;;12.97;6.90;;;6.20;99.90;;;;;;4984555;28;20461;-74
2023/12/17 12:09:46;;;;;;;9.30;5.70;;;5.90;99.90;;;;;;5002171;28;20613;-75
2023/12/17 12:12:26;;;;;;;10.60;6.37;;;6.00;99.90;;;;;;4976481;28;20533;-75
2023/12/17 12:14:52;;;;;;;13.40;5.70;;;6.10;99.90;;;;;;4993135;28;20465;-73
2023/12/17 12:17:41;;;;;;;11.60;5.93;;;6.20;99.90;;;;;;4992378;28;20453;-74
2023/12/17 12:20:12;;;;;;;11.90;5.97;;;6.30;99.90;;;;;;4983314;28;20548;-74
2023/12/17 12:22:45;;;;;;;8.60;5.70;;;6.30;99.90;;;;;;4992178;28;20458;-75
2023/12/17 12:25:12;;;;;;;10.30;6.50;;;6.30;99.90;;;;;;4971415;28;20523;-75
2023/12/17 12:27:38;;;;;;;9.40;6.00;;;6.40;99.90;;;;;;5002447;28;20465;-74
2023/12/17 12:30:05;;;;;;;10.07;7.10;;;6.40;99.90;;;;;;4988849;28;20462;-75
2023/12/17 12:32:34;;;;;;;11.90;6.83;;;6.40;99.90;;;;;;4990314;28;20282;-75
2023/12/17 12:35:00;;;;;;;12.00;6.90;;;6.40;99.90;;;;;;4991986;28;20476;-74
2023/12/17 12:37:41;;;;;;;12.63;7.60;;;6.30;99.90;;;;;;4990743;28;20490;-75
2023/12/17 12:40:07;;;;;;;10.90;7.20;;;6.30;99.90;;;;;;4997900;28;20473;-75
2023/12/17 12:42:34;;;;;;;12.73;6.50;;;6.40;99.90;;;;;;4991347;28;20465;-75
2023/12/17 12:44:59;;;;;;;9.10;6.20;;;6.40;99.90;;;;;;4985688;28;20488;-74
2023/12/17 12:47:25;;;;;;;8.63;6.43;;;6.50;99.90;;;;;;4990117;28;20457;-77
2023/12/17 12:49:51;;;;;;;8.97;5.97;;;6.50;99.90;;;;;;5001989;28;20239;-75
2023/12/17 12:52:24;;;;;;;16.03;7.80;;;6.40;99.90;;;;;;4988582;28;20229;-75